ADDS METAR Data INFO
IDs: Format: Raw Decoded Include TAF

Data at: 0213 UTC 19 Jul 2018

KOSA 190155Z AUTO 14005KT 10SM CLR 30/24 A2987 RMK AO1 T03040238
KOSA 190135Z AUTO 13005KT 10SM CLR 31/24 A2987 RMK AO1 T03070235
KOSA 190115Z AUTO 14005KT 10SM CLR 31/23 A2987 RMK AO1 T03140234
KOSA 190055Z AUTO 13006KT 10SM CLR 32/23 A2987 RMK AO1 T03200233
KOSA 190035Z AUTO 13004KT 10SM CLR 32/24 A2987 RMK AO1 T03210239
KOSA 190015Z AUTO 12005KT 10SM CLR 33/24 A2987 RMK AO1 T03260237
KOSA 182355Z AUTO 12004KT 10SM CLR 33/24 A2987 RMK AO1 T03340241 10351 20307
KOSA 182335Z AUTO 11003KT 7SM CLR 34/25 A2987 RMK AO1 T03410247
KOSA 182310Z AUTO 12003KT 10SM CLR 34/24 A2988 RMK AO1 T03420236
KOSA 182255Z AUTO 11003KT 7SM CLR 35/23 A2989 RMK AO1 T03450230
KOSA 182235Z AUTO 14003KT 7SM CLR 35/23 A2989 RMK AO1 T03460227
KOSA 182215Z AUTO 19003KT 10SM CLR 35/22 A2989 RMK AO1 T03470219
KOSA 182115Z AUTO 16005KT 7SM CLR 35/23 A2991 RMK AO1 T03490230
KOSA 182055Z AUTO 20007KT 7SM CLR 35/23 A2992 RMK AO1 T03480230
KOSA 182035Z AUTO 20006KT 10SM CLR 34/23 A2992 RMK AO1 T03430228
KOSA 182010Z AUTO 16005KT 10SM CLR 34/23 A2993 RMK AO1 T03390228
KOSA 181955Z AUTO 18007KT 7SM CLR 34/23 A2994 RMK AO1 T03370233
KOSA 181935Z AUTO 21007KT 7SM CLR 33/23 A2995 RMK AO1 T03310230
KOSA 181915Z AUTO 18005KT 10SM CLR 33/24 A2995 RMK AO1 T03320235
KOSA 181855Z AUTO 20006KT 7SM CLR 33/23 A2996 RMK AO1 T03280233
KOSA 181835Z AUTO 17005KT 10SM CLR 32/23 A2996 RMK AO1 T03170234
KOSA 181815Z AUTO 19004KT 7SM CLR 31/23 A2997 RMK AO1 T03120234
KOSA 181755Z AUTO 20004KT 10SM CLR 31/23 A2998 RMK AO1 60019 T03060232 10306 20230
KOSA 181735Z AUTO 18004KT 10SM CLR 30/24 A2999 RMK AO1 T03000235
KOSA 181715Z AUTO 15003KT 10SM CLR 29/24 A2999 RMK AO1 T02920239
KOSA 181655Z AUTO 22003KT 10SM CLR 29/24 A3000 RMK AO1 T02870237
KOSA 181635Z AUTO 00000KT 10SM CLR 28/23 A3000 RMK AO1 T02800234
KOSA 181615Z AUTO 00000KT 10SM CLR 28/23 A3000 RMK AO1 T02750234
KOSA 181555Z AUTO 18003KT 10SM CLR 27/23 A3000 RMK AO1 T02690233
KOSA 181535Z AUTO 00000KT 10SM CLR 27/24 A3000 RMK AO1 T02670236
KOSA 181510Z AUTO 25006KT 7SM CLR 27/23 A3000 RMK AO1 T02670233
KOSA 181455Z AUTO 25007KT 10SM CLR 26/23 A3000 RMK AO1 P0005 60019 T02630228
KOSA 181435Z AUTO 24013KT 5SM SCT007 26/22 A3000 RMK AO1 P0005 T02610220
KOSA 181415Z AUTO 22006KT 7SM SCT008 BKN012 26/23 A3001 RMK AO1 P0003 T02560226
KOSA 181355Z AUTO 22009KT 1SM BKN006 OVC012 25/23 A3000 RMK AO1 P0014 T02540227
KOSA 181335Z AUTO 14004KT 7SM CLR 26/22 A3000 RMK AO1 T02560221
KOSA 181315Z AUTO 00000KT 7SM CLR 25/22 A3000 RMK AO1 T02510219
KOSA 181255Z AUTO 00000KT 7SM CLR 25/22 A3000 RMK AO1 T02470220
KOSA 181235Z AUTO 00000KT 7SM CLR 24/22 A3000 RMK AO1 T02420216
KOSA 181215Z AUTO 00000KT 7SM CLR 24/22 A3000 RMK AO1 T02370215
KOSA 181155Z AUTO 00000KT 7SM CLR 24/21 A2999 RMK AO1 T02350210 10290 20234
KOSA 181135Z AUTO 00000KT 10SM CLR 24/21 A2999 RMK AO1 T02400211
KOSA 181115Z AUTO 11003KT 10SM CLR 23/21 A2998 RMK AO1 T02340210
KOSA 181055Z AUTO 00000KT 10SM CLR 24/21 A2998 RMK AO1 T02420208
KOSA 181035Z AUTO 00000KT 10SM CLR 25/21 A2998 RMK AO1 T02520205
KOSA 181015Z AUTO 00000KT 10SM CLR 25/21 A2997 RMK AO1 T02510206
KOSA 180955Z AUTO 00000KT 10SM CLR 25/21 A2997 RMK AO1 T02460206
KOSA 180935Z AUTO 18004KT 7SM CLR 25/21 A2997 RMK AO1 T02520205
KOSA 180915Z AUTO 00000KT 10SM CLR 25/21 A2997 RMK AO1 T02530206
KOSA 180855Z AUTO 00000KT 7SM CLR 27/20 A2997 RMK AO1 T02650201
KOSA 180835Z AUTO 00000KT 7SM CLR 26/20 A2996 RMK AO1 T02600201
KOSA 180815Z AUTO 20004KT 7SM CLR 27/20 A2995 RMK AO1 T02650200
KOSA 180755Z AUTO 22004KT 7SM CLR 27/20 A2995 RMK AO1 T02700200
KOSA 180735Z AUTO 22004KT 7SM CLR 28/20 A2996 RMK AO1 T02750198
KOSA 180715Z AUTO 20003KT 7SM CLR 28/20 A2996 RMK AO1 T02800196
KOSA 180655Z AUTO 19003KT 7SM CLR 28/20 A2997 RMK AO1 T02780197
KOSA 180635Z AUTO 18003KT 7SM CLR 29/20 A2997 RMK AO1 T02850197
KOSA 180615Z AUTO 19003KT 7SM CLR 28/20 A2997 RMK AO1 T02840198
KOSA 180555Z AUTO 20003KT 7SM CLR 29/20 A2997 RMK AO1 T02880199 10350 20282 403610242
KOSA 180535Z AUTO 00000KT 7SM CLR 28/21 A2997 RMK AO1 T02830206
KOSA 180515Z AUTO 00000KT 7SM CLR 29/21 A2997 RMK AO1 T02850206
KOSA 180455Z AUTO 00000KT 7SM CLR 29/21 A2997 RMK AO1 T02850210
KOSA 180435Z AUTO 00000KT 7SM CLR 28/21 A2997 RMK AO1 T02840211
KOSA 180415Z AUTO 12003KT 10SM CLR 29/21 A2998 RMK AO1 T02860211
KOSA 180355Z AUTO 13003KT 7SM CLR 29/21 A2998 RMK AO1 T02870212
KOSA 180335Z AUTO 14004KT 7SM CLR 29/21 A2998 RMK AO1 T02890211
KOSA 180315Z AUTO 11003KT 7SM CLR 29/21 A2998 RMK AO1 T02920212
KOSA 180255Z AUTO 15004KT 7SM CLR 29/22 A2997 RMK AO1 T02930217
KOSA 180235Z AUTO 15003KT 7SM CLR 29/22 A2996 RMK AO1 T02900217
KOSA 180215Z AUTO 15004KT 7SM CLR 30/22 A2996 RMK AO1 T03000217
KOSA 180155Z AUTO 12003KT 7SM CLR 30/21 A2996 RMK AO1 T03040213
KOSA 180135Z AUTO 16005KT 7SM CLR 31/21 A2995 RMK AO1 T03080212
KOSA 180115Z AUTO 14003KT 7SM CLR 32/22 A2995 RMK AO1 T03180217
KOSA 180055Z AUTO 15003KT 7SM CLR 33/21 A2995 RMK AO1 T03280213
KOSA 180040Z AUTO 17004KT 7SM CLR 33/21 A2994 RMK AO1 T03310214
KOSA 172355Z AUTO 19006KT 5SM CLR 35/20 A2995 RMK AO1 T03510196 10361 20326
KOSA 172330Z AUTO 20006KT 5SM CLR 36/19 A2995 RMK AO1 T03560190
KOSA 172315Z AUTO 19007KT 5SM CLR 36/19 A2995 RMK AO1 T03560192
KOSA 172155Z AUTO 17007KT 7SM CLR 36/20 A2996 RMK AO1 T03580203
KOSA 172135Z AUTO 23006KT 7SM CLR 36/19 A2997 RMK AO1 T03580194
KOSA 172115Z AUTO 20004KT 7SM CLR 36/20 A2997 RMK AO1 T03550196
KOSA 172050Z AUTO 23004KT 7SM CLR 36/20 A2998 RMK AO1 T03560199
KOSA 172035Z AUTO 21005KT 7SM CLR 35/20 A2999 RMK AO1 T03540203
KOSA 172015Z AUTO 25006KT 7SM CLR 35/20 A3000 RMK AO1 T03530203
KOSA 171955Z AUTO 24005KT 7SM CLR 35/20 A3001 RMK AO1 T03500203
KOSA 171935Z AUTO 23007KT 7SM CLR 35/21 A3001 RMK AO1 T03460205
KOSA 171915Z AUTO 18004KT 7SM CLR 35/21 A3002 RMK AO1 T03460206
KOSA 171855Z AUTO 18005KT 7SM CLR 34/21 A3002 RMK AO1 T03400209
KOSA 171835Z AUTO 23007KT 7SM CLR 34/21 A3004 RMK AO1 T03360209
KOSA 171815Z AUTO 17004KT 7SM CLR 33/21 A3005 RMK AO1 T03320214
KOSA 171755Z AUTO 00000KT 7SM CLR 33/21 A3005 RMK AO1 T03260214 10327 20247
KOSA 171735Z AUTO 00000KT 7SM CLR 32/21 A3007 RMK AO1 T03220211
KOSA 171715Z AUTO 20005KT 7SM CLR 32/22 A3007 RMK AO1 T03160216
KOSA 171655Z AUTO 21004KT 7SM CLR 31/22 A3007 RMK AO1 T03110218
KOSA 171635Z AUTO 24006KT 7SM CLR 30/21 A3007 RMK AO1 T03040211
KOSA 171615Z AUTO 26003KT 7SM CLR 29/21 A3007 RMK AO1 T02930213
KOSA 171555Z AUTO 23007KT 7SM CLR 29/21 A3007 RMK AO1 T02920210
KOSA 171535Z AUTO 24006KT 7SM CLR 29/21 A3007 RMK AO1 T02910210
KOSA 171515Z AUTO 24006KT 7SM CLR 29/21 A3006 RMK AO1 T02880209
KOSA 171455Z AUTO 23006KT 7SM CLR 29/21 A3006 RMK AO1 T02870208
KOSA 171435Z AUTO 22007KT 7SM CLR 29/21 A3006 RMK AO1 T02850207
KOSA 171415Z AUTO 23006KT 7SM CLR 28/21 A3006 RMK AO1 T02810205